Ocean King — CZ2591 — position and weather

sailwx.info

Track history (hours):
 
Tides and Currents Weather Stations Pressure Air Temp Water Temp Dewpoint Dewpoint Depression Visibility Wind Speed Wind Dir Waves Ship Positions

Ocean King

Last reported at 2017-Aug-21 15:19 UTC. Time now 2017-Aug-21 23:42 UTC.
Position N 49°20' W 126°59'.

Length 29 m; draft 4 m.

Type: Fishing. MMSI: 316003514.

Date/timePositionNaut miles runAvg speedWind from/ knotsBaromVisibWave heightAir tempDewpointWater temp
2017-Aug-21 15:19N 49°20' W 126°59'3 7.8
2017-Aug-21 14:59N 49°19' W 126°55'3 7.4
2017-Aug-21 14:30N 49°18' W 126°51'4 7.5
2017-Aug-21 14:00N 49°16' W 126°45'4 8.0
2017-Aug-21 13:30N 49°14' W 126°40'4 8.2
2017-Aug-21 13:00N 49°13' W 126°34'4 8.3
2017-Aug-21 12:30N 49°11' W 126°28'4 8.5
2017-Aug-21 12:00N 49°09' W 126°22'4 8.5
2017-Aug-21 11:30N 49°08' W 126°16'4 8.4
2017-Aug-21 11:00N 49°06' W 126°11'4 8.2
2017-Aug-21 10:30N 49°04' W 126°05'4 8.0
2017-Aug-21 10:00N 49°02' W 125°60'4 7.4
2017-Aug-21 09:30N 49°01' W 125°55'4 7.4
2017-Aug-21 09:00N 48°59' W 125°50'4 7.8
2017-Aug-21 08:30N 48°58' W 125°44'4 7.3
2017-Aug-21 08:00N 48°56' W 125°39'4 7.2
2017-Aug-21 07:30N 48°55' W 125°34'1 2.9
2017-Aug-21 07:00N 48°56' W 125°32'0 0.0
2017-Aug-21 06:30N 48°56' W 125°32'0 0.0
2017-Aug-21 06:00N 48°56' W 125°32'0 0.0
2017-Aug-21 05:30N 48°56' W 125°32'0 0.0
2017-Aug-21 05:00N 48°56' W 125°32'0 0.0
2017-Aug-21 04:30N 48°56' W 125°32'0 0.0
2017-Aug-21 04:01N 48°56' W 125°32'0 0.0
2017-Aug-21 03:30N 48°56' W 125°32'0 0.0
2017-Aug-21 03:00N 48°56' W 125°32'0 0.3
2017-Aug-21 02:30N 48°56' W 125°32'0 0.0
2017-Aug-21 02:00N 48°56' W 125°32'0 0.0
2017-Aug-21 01:30N 48°56' W 125°32'0 0.0
2017-Aug-21 01:00N 48°56' W 125°32'0 0.0
2017-Aug-21 00:30N 48°56' W 125°32'0 0.0
2017-Aug-21 00:00N 48°56' W 125°32'0 0.0
2017-Aug-20 23:31N 48°56' W 125°32'0 0.0
2017-Aug-20 23:00N 48°56' W 125°32'0 0.0
2017-Aug-20 22:30N 48°56' W 125°32'0 0.0
2017-Aug-20 22:00N 48°56' W 125°32'0 0.0
2017-Aug-20 21:30N 48°56' W 125°32'0 0.0
2017-Aug-20 21:00N 48°56' W 125°32'0 0.0
2017-Aug-20 20:30N 48°56' W 125°32'0 0.0
2017-Aug-20 20:00N 48°56' W 125°32'0 0.0
2017-Aug-20 19:30N 48°56' W 125°32'0 0.0
2017-Aug-20 19:00N 48°56' W 125°32'0 0.0
2017-Aug-20 18:30N 48°56' W 125°32'0 0.0
2017-Aug-20 18:00N 48°56' W 125°32'0 0.0
2017-Aug-20 17:30N 48°56' W 125°32'0 0.0
2017-Aug-20 17:00N 48°56' W 125°32'0 0.0
2017-Aug-20 16:30N 48°56' W 125°32'0 0.0
2017-Aug-20 16:01N 48°56' W 125°32'0 0.0
2017-Aug-20 15:30N 48°56' W 125°32'0 0.0
2017-Aug-20 15:00N 48°56' W 125°32'0 0.0
2017-Aug-20 14:30N 48°56' W 125°32'0 0.0
2017-Aug-20 14:00N 48°56' W 125°32'0 0.0
2017-Aug-20 13:30N 48°56' W 125°32'0 0.0
2017-Aug-20 13:00N 48°56' W 125°32'0 0.0
2017-Aug-20 12:30N 48°56' W 125°32'0 0.0
2017-Aug-20 12:00N 48°56' W 125°32'0 0.0
2017-Aug-20 11:30N 48°56' W 125°32'0 0.0
2017-Aug-20 11:00N 48°56' W 125°32'0 0.0
2017-Aug-20 10:30N 48°56' W 125°32'0 0.0
2017-Aug-20 10:00N 48°56' W 125°32'0 0.0
2017-Aug-20 09:30N 48°56' W 125°32'0 0.0
2017-Aug-20 09:00N 48°56' W 125°32'0 0.0
2017-Aug-20 08:30N 48°56' W 125°32'0 0.0
2017-Aug-20 08:00N 48°56' W 125°32'0 0.0
2017-Aug-20 07:31N 48°56' W 125°32'0 0.0
2017-Aug-20 07:00N 48°56' W 125°32'0 0.0
2017-Aug-20 06:30N 48°56' W 125°32'0 0.0
2017-Aug-20 06:00N 48°56' W 125°32'0 0.0
2017-Aug-20 05:30N 48°56' W 125°32'0 0.0
2017-Aug-20 05:00N 48°56' W 125°32'0 0.0
2017-Aug-20 04:30N 48°56' W 125°32'0 0.0
2017-Aug-20 04:00N 48°56' W 125°32'0 0.0
2017-Aug-20 03:30N 48°56' W 125°32'0 0.0
2017-Aug-20 03:00N 48°56' W 125°32'0 0.0
2017-Aug-20 02:30N 48°56' W 125°32'0 0.0
2017-Aug-20 02:00N 48°56' W 125°32'0 0.0
2017-Aug-20 01:30N 48°56' W 125°32'0 0.0
2017-Aug-20 01:00N 48°56' W 125°32'0 0.0
2017-Aug-20 00:30N 48°56' W 125°32'0 0.0
2017-Aug-20 00:00N 48°56' W 125°32'0 0.0
2017-Aug-19 23:30N 48°56' W 125°32'0 0.0
2017-Aug-19 23:00N 48°56' W 125°32'0 0.0
2017-Aug-19 22:30N 48°56' W 125°32'0 0.0
2017-Aug-19 22:00N 48°56' W 125°32'0 0.0
2017-Aug-19 21:30N 48°56' W 125°32'0 0.0
2017-Aug-19 21:00N 48°56' W 125°32'0 0.0
2017-Aug-19 20:30N 48°56' W 125°32'0 0.0
2017-Aug-19 20:00N 48°56' W 125°32'0 0.0
2017-Aug-19 19:30N 48°56' W 125°32'0 0.0
2017-Aug-19 19:00N 48°56' W 125°32'0 0.0
2017-Aug-19 18:30N 48°56' W 125°32'0 0.0
2017-Aug-19 18:00N 48°56' W 125°32'0 0.0
2017-Aug-19 17:30N 48°56' W 125°32'0 0.0
2017-Aug-19 17:00N 48°56' W 125°32'0 0.0
2017-Aug-19 16:30N 48°56' W 125°32'0 0.0
2017-Aug-19 16:00N 48°56' W 125°32'0 0.0
2017-Aug-19 15:30N 48°56' W 125°32'0 0.0
2017-Aug-19 15:00N 48°56' W 125°32'0 0.0
2017-Aug-19 14:00N 48°56' W 125°32'0 0.0
2017-Aug-19 13:30N 48°56' W 125°32'0 0.0
2017-Aug-19 13:00N 48°56' W 125°32'0 0.0
2017-Aug-19 12:30N 48°56' W 125°32'0 0.0
2017-Aug-19 12:00N 48°56' W 125°32'0 0.0
2017-Aug-19 11:30N 48°56' W 125°32'0 0.0
2017-Aug-19 11:00N 48°56' W 125°32'0 0.0
2017-Aug-19 10:30N 48°56' W 125°32'0 0.0
2017-Aug-19 10:00N 48°56' W 125°32'0 0.0
2017-Aug-19 09:31N 48°56' W 125°32'0 0.0
2017-Aug-19 09:00N 48°56' W 125°32'0 0.0
2017-Aug-19 08:30N 48°56' W 125°32'0 0.0
2017-Aug-19 08:00N 48°56' W 125°32'0 0.0
2017-Aug-19 07:30N 48°56' W 125°32'0 0.0
2017-Aug-19 07:00N 48°56' W 125°32'0 0.0
2017-Aug-19 06:30N 48°56' W 125°32'0 0.0
2017-Aug-19 06:00N 48°56' W 125°32'0 0.0
2017-Aug-19 05:30N 48°56' W 125°32'0 0.0
2017-Aug-19 05:01N 48°56' W 125°32'0 0.0
2017-Aug-19 04:30N 48°56' W 125°32'0 0.0
2017-Aug-19 04:00N 48°56' W 125°32'0 0.0
2017-Aug-19 03:30N 48°56' W 125°32'0 0.0
2017-Aug-19 03:00N 48°56' W 125°32'0 0.0
2017-Aug-19 02:30N 48°56' W 125°32'0 0.0
2017-Aug-19 02:00N 48°56' W 125°32'0 0.0
2017-Aug-19 01:30N 48°56' W 125°32'0 0.0
2017-Aug-19 01:00N 48°56' W 125°32'0 0.0
2017-Aug-19 00:30N 48°56' W 125°32'0 0.0
2017-Aug-19 00:00N 48°56' W 125°32'0 0.0
2017-Aug-18 23:30N 48°56' W 125°32'0 0.0
2017-Aug-18 23:00N 48°56' W 125°32'0 0.5
2017-Aug-18 22:30N 48°56' W 125°32'0 0.0
2017-Aug-18 22:00N 48°56' W 125°32'0 0.0
2017-Aug-18 21:30N 48°56' W 125°32'0 0.0
2017-Aug-18 21:00N 48°56' W 125°32'0 0.0
2017-Aug-18 20:30N 48°56' W 125°32'0 0.0
2017-Aug-18 20:00N 48°56' W 125°32'0 0.2
2017-Aug-18 19:30N 48°56' W 125°32'0 0.0
2017-Aug-18 19:00N 48°56' W 125°32'0 0.0
2017-Aug-18 18:31N 48°56' W 125°32'0 0.0
2017-Aug-18 18:00N 48°56' W 125°32'0 0.0
2017-Aug-18 17:30N 48°56' W 125°32'0 0.0
2017-Aug-18 17:00N 48°56' W 125°32'0 0.0
2017-Aug-18 16:30N 48°56' W 125°32'0 0.0
2017-Aug-18 16:00N 48°56' W 125°32'0 0.0
2017-Aug-18 15:30N 48°56' W 125°32'1 2.8
2017-Aug-18 15:00N 48°55' W 125°33'4 8.4
2017-Aug-18 14:31N 48°57' W 125°38'8 8.2
2017-Aug-18 13:30N 49°01' W 125°50'4 8.5
2017-Aug-18 13:00N 49°02' W 125°55'4 7.2
2017-Aug-18 12:30N 49°04' W 126°00'3 6.9
2017-Aug-18 12:00N 49°06' W 126°05'3 6.9
2017-Aug-18 11:30N 49°07' W 126°10'4 6.9
2017-Aug-18 10:59N 49°09' W 126°14'4 6.9
2017-Aug-18 10:28N 49°11' W 126°19'3 6.9
2017-Aug-18 10:00N 49°12' W 126°23'4 7.0
2017-Aug-18 09:30N 49°14' W 126°28'4 7.0
2017-Aug-18 09:00N 49°16' W 126°33'4 7.2
2017-Aug-18 08:30N 49°17' W 126°38'4 7.3
2017-Aug-18 08:00N 49°19' W 126°43'4 7.2
2017-Aug-18 07:30N 49°21' W 126°47'4 7.7
2017-Aug-18 07:00N 49°22' W 126°53'4 7.9
2017-Aug-18 06:27N 49°25' W 126°58'13 1.0
2017-Aug-17 18:10N 49°30' W 127°16'14 2.3
2017-Aug-17 11:48N 49°19' W 127°02'3 7.7
2017-Aug-17 11:28N 49°18' W 126°58'3 7.4
2017-Aug-17 11:00N 49°16' W 126°54'4 7.7
2017-Aug-17 10:30N 49°15' W 126°48'4 7.7
2017-Aug-17 10:00N 49°13' W 126°43'4 7.9
2017-Aug-17 09:30N 49°12' W 126°37'4 8.0
2017-Aug-17 09:00N 49°10' W 126°32'4 8.2
2017-Aug-17 08:30N 49°09' W 126°25'4 8.3
2017-Aug-17 08:00N 49°08' W 126°20'4 8.3
2017-Aug-17 07:30N 49°06' W 126°14'4 8.1
2017-Aug-17 07:00N 49°04' W 126°08'4 7.9
2017-Aug-17 06:30N 49°03' W 126°03'4 7.5
2017-Aug-17 06:00N 49°02' W 125°57'4 7.5
2017-Aug-17 05:30N 49°00' W 125°52'4 7.6
2017-Aug-17 05:00N 48°59' W 125°46'4 7.7
2017-Aug-17 04:30N 48°58' W 125°41'4 7.9
2017-Aug-17 04:00N 48°56' W 125°35'2 5.0
2017-Aug-17 03:30N 48°56' W 125°32'1 1.2
2017-Aug-17 03:00N 48°56' W 125°32'0 0.0
2017-Aug-17 02:30N 48°56' W 125°32'0 0.0
2017-Aug-17 02:00N 48°56' W 125°32'0 0.0
2017-Aug-17 01:30N 48°56' W 125°32'0 0.0
2017-Aug-17 01:00N 48°56' W 125°32'0 0.0
2017-Aug-17 00:30N 48°56' W 125°32'0 0.0
2017-Aug-17 00:00N 48°56' W 125°32'0 0.0
2017-Aug-16 23:30N 48°56' W 125°32'0 0.0
2017-Aug-16 23:00N 48°56' W 125°32'0 0.0
2017-Aug-16 22:30N 48°56' W 125°32'0 0.0
2017-Aug-16 22:00N 48°56' W 125°32'0 0.0
2017-Aug-16 21:30N 48°56' W 125°32'0 0.0
2017-Aug-16 21:00N 48°56' W 125°32'0 0.0
2017-Aug-16 20:30N 48°56' W 125°32'0 0.0
2017-Aug-16 20:00N 48°56' W 125°32'0 0.0
2017-Aug-16 19:30N 48°56' W 125°32'0 0.0
2017-Aug-16 19:00N 48°56' W 125°32'0 0.0
2017-Aug-16 18:30N 48°56' W 125°32'0 0.0
2017-Aug-16 18:00N 48°56' W 125°32'0 0.0
2017-Aug-16 17:30N 48°56' W 125°32'0 0.0
2017-Aug-16 17:00N 48°56' W 125°32'0 0.0
2017-Aug-16 16:30N 48°56' W 125°32'0 0.0
2017-Aug-16 16:00N 48°56' W 125°32'0 0.0
2017-Aug-16 15:30N 48°56' W 125°32'0 0.0
2017-Aug-16 15:00N 48°56' W 125°32'2 3.2
2017-Aug-16 14:31N 48°55' W 125°32'3 6.7
2017-Aug-16 14:00N 48°56' W 125°36'3 6.2
2017-Aug-16 13:30N 48°58' W 125°40'3 6.1
2017-Aug-16 13:01N 48°59' W 125°45'3 5.8
2017-Aug-16 12:30N 48°60' W 125°49'3 5.5
2017-Aug-16 12:00N 49°01' W 125°52'3 5.7
2017-Aug-16 11:30N 49°03' W 125°56'3 5.6
2017-Aug-16 11:00N 49°04' W 126°00'3 5.8
2017-Aug-16 10:31N 49°05' W 126°04'3 5.8
2017-Aug-16 10:00N 49°07' W 126°08'3 5.8
2017-Aug-16 09:30N 49°08' W 126°12'3 5.6
2017-Aug-16 09:00N 49°09' W 126°16'3 5.8
2017-Aug-16 08:29N 49°11' W 126°20'3 6.1
2017-Aug-16 08:01N 49°12' W 126°24'3 6.1
2017-Aug-16 07:29N 49°14' W 126°28'5 6.1
2017-Aug-16 06:37N 49°16' W 126°35'27 3.5
2017-Aug-15 22:49N 49°24' W 127°16'1 2.6
2017-Aug-15 22:27N 49°23' W 127°15'1 2.6
2017-Aug-15 21:58N 49°22' W 127°14'0 0.4
2017-Aug-15 21:11N 49°21' W 127°14'2 6.8
2017-Aug-15 20:53N 49°23' W 127°15'2 3.6
2017-Aug-15 20:21N 49°22' W 127°14'26 2.4
2017-Aug-15 09:26N 49°17' W 126°34'4 8.4
2017-Aug-15 09:00N 49°15' W 126°29'4 8.3
2017-Aug-15 08:30N 49°13' W 126°24'4 8.5
2017-Aug-15 08:00N 49°11' W 126°18'4 8.4
2017-Aug-15 07:30N 49°09' W 126°12'4 8.3
2017-Aug-15 07:00N 49°07' W 126°07'4 8.1
2017-Aug-15 06:30N 49°05' W 126°01'4 7.8
2017-Aug-15 06:00N 49°03' W 125°56'4 7.7
2017-Aug-15 05:30N 49°01' W 125°51'4 7.6
2017-Aug-15 05:00N 48°59' W 125°46'4 7.8
2017-Aug-15 04:30N 48°57' W 125°41'4 8.1
2017-Aug-15 04:01N 48°56' W 125°35'2 4.4
2017-Aug-15 03:30N 48°56' W 125°32'0 0.5
2017-Aug-15 03:00N 48°56' W 125°32'0 0.0
2017-Aug-15 02:30N 48°56' W 125°32'0 0.0
2017-Aug-15 02:00N 48°56' W 125°32'0 0.0
2017-Aug-15 01:30N 48°56' W 125°32'0 0.0
2017-Aug-15 01:00N 48°56' W 125°32'0 0.0
2017-Aug-15 00:30N 48°56' W 125°32'0 0.0
2017-Aug-15 00:00N 48°56' W 125°32'0 0.0
2017-Aug-14 23:30N 48°56' W 125°32'0 0.0
2017-Aug-14 23:00N 48°56' W 125°32'0 0.0
2017-Aug-14 22:30N 48°56' W 125°32'0 0.0
2017-Aug-14 22:00N 48°56' W 125°32'0 0.0
2017-Aug-14 21:30N 48°56' W 125°32'0 0.0
2017-Aug-14 21:00N 48°56' W 125°32'0 0.0
2017-Aug-14 20:30N 48°56' W 125°32'0 0.0
2017-Aug-14 20:00N 48°56' W 125°32'0 0.0
2017-Aug-14 19:30N 48°56' W 125°32'0 0.0
2017-Aug-14 19:00N 48°56' W 125°32'0 0.0
2017-Aug-14 18:30N 48°56' W 125°32'0 0.0
2017-Aug-14 18:00N 48°56' W 125°32'0 0.9
2017-Aug-14 17:30N 48°56' W 125°32'2 3.6
2017-Aug-14 17:00N 48°55' W 125°34'3 6.3
2017-Aug-14 16:30N 48°56' W 125°38'3 6.5
2017-Aug-14 16:00N 48°58' W 125°42'3 6.3
2017-Aug-14 15:30N 48°59' W 125°47'3 6.1
2017-Aug-14 15:00N 48°60' W 125°51'3 6.0
2017-Aug-14 14:30N 49°01' W 125°55'3 5.9
2017-Aug-14 14:00N 49°03' W 125°59'3 5.7
2017-Aug-14 13:30N 49°04' W 126°03'3 5.6
2017-Aug-14 13:00N 49°06' W 126°07'3 5.6
2017-Aug-14 12:30N 49°07' W 126°11'3 5.6
2017-Aug-14 12:01N 49°08' W 126°14'3 5.4
2017-Aug-14 11:30N 49°09' W 126°18'3 5.5
2017-Aug-14 11:00N 49°10' W 126°22'4 5.6
2017-Aug-14 10:23N 49°11' W 126°27'3 5.8
2017-Aug-14 09:54N 49°12' W 126°31'15 0.4
2017-Aug-13 00:30N 48°57' W 126°33'4 6.6
2017-Aug-12 23:52N 48°53' W 126°33'3 6.3
2017-Aug-12 23:26N 48°50' W 126°32'3 6.6
2017-Aug-12 22:57N 48°49' W 126°27'3 6.3
2017-Aug-12 22:27N 48°48' W 126°23'3 6.5
2017-Aug-12 22:00N 48°46' W 126°19'3 6.4
2017-Aug-12 21:30N 48°44' W 126°15'3 5.6
2017-Aug-12 21:00N 48°42' W 126°16'3 5.2
2017-Aug-12 20:30N 48°40' W 126°14'1 1.5
2017-Aug-12 20:00N 48°40' W 126°15'3 5.8
2017-Aug-12 19:30N 48°37' W 126°12'4 8.2
2017-Aug-12 19:00N 48°34' W 126°10'2 4.6
2017-Aug-12 18:30N 48°36' W 126°10'5 9.3
2017-Aug-12 18:00N 48°40' W 126°15'4 9.0
2017-Aug-12 17:30N 48°44' W 126°14'4 7.9
2017-Aug-12 17:00N 48°46' W 126°19'1 2.5
2017-Aug-12 16:30N 48°46' W 126°18'3 6.5
2017-Aug-12 16:00N 48°43' W 126°15'3 6.2
2017-Aug-12 15:30N 48°40' W 126°15'4 8.5
2017-Aug-12 15:00N 48°37' W 126°11'3 5.5
2017-Aug-12 14:30N 48°34' W 126°10'4 6.9
2017-Aug-12 14:00N 48°37' W 126°12'4 7.9
2017-Aug-12 13:30N 48°40' W 126°15'4 7.4
2017-Aug-12 13:00N 48°43' W 126°11'4 7.6
2017-Aug-12 12:30N 48°44' W 126°06'4 7.6
2017-Aug-12 12:00N 48°46' W 126°00'4 7.6
2017-Aug-12 11:30N 48°47' W 125°55'4 7.6
2017-Aug-12 11:00N 48°49' W 125°50'4 7.6
2017-Aug-12 10:30N 48°50' W 125°44'4 7.4
2017-Aug-12 10:00N 48°52' W 125°39'4 7.2
2017-Aug-12 09:30N 48°53' W 125°34'3 6.1
2017-Aug-12 09:00N 48°55' W 125°31'1 2.4
2017-Aug-12 08:30N 48°56' W 125°32'0 0.0
2017-Aug-12 08:00N 48°56' W 125°32'0 0.0
2017-Aug-12 07:31N 48°56' W 125°32'0 0.0
2017-Aug-12 07:00N 48°56' W 125°32'0 0.0
2017-Aug-12 06:30N 48°56' W 125°32'0 0.0
2017-Aug-12 06:00N 48°56' W 125°32'0 0.0
2017-Aug-12 05:30N 48°56' W 125°32'0 0.0
2017-Aug-12 05:00N 48°56' W 125°32'0 0.0
2017-Aug-12 04:30N 48°56' W 125°32'0 0.0
2017-Aug-12 04:00N 48°56' W 125°32'0 0.0
2017-Aug-12 03:30N 48°56' W 125°32'0 0.0
2017-Aug-12 03:00N 48°56' W 125°32'0 0.0
2017-Aug-12 02:30N 48°56' W 125°32'0 0.0
2017-Aug-12 02:00N 48°56' W 125°32'0 0.0
2017-Aug-12 01:30N 48°56' W 125°32'0 0.0
2017-Aug-12 01:00N 48°56' W 125°32'0 0.0
2017-Aug-12 00:30N 48°56' W 125°32'0 0.0
2017-Aug-12 00:00N 48°56' W 125°32'0 0.0
2017-Aug-11 23:30N 48°56' W 125°32'0 0.0
2017-Aug-11 23:00N 48°56' W 125°32'0 0.0
2017-Aug-11 22:30N 48°56' W 125°32'0 0.0
2017-Aug-11 22:00N 48°56' W 125°32'0 0.0
2017-Aug-11 21:30N 48°56' W 125°32'0 0.0
2017-Aug-11 21:01N 48°56' W 125°32'0 0.0
2017-Aug-11 20:30N 48°56' W 125°32'0 0.0
2017-Aug-11 20:00N 48°56' W 125°32'0 0.0
2017-Aug-11 19:30N 48°56' W 125°32'0 0.0
2017-Aug-11 19:00N 48°56' W 125°32'0 0.0
2017-Aug-11 18:30N 48°56' W 125°32'0 0.0
2017-Aug-11 18:00N 48°56' W 125°32'0 0.0
2017-Aug-11 17:30N 48°56' W 125°32'0 0.1
2017-Aug-11 17:00N 48°56' W 125°32'0 0.1
2017-Aug-11 16:30N 48°56' W 125°32'0 0.0
2017-Aug-11 16:00N 48°56' W 125°32'0 0.0
2017-Aug-11 15:30N 48°56' W 125°32'  
Track history (hours):
 
Tides and Currents Weather Stations Pressure Air Temp Water Temp Dewpoint Dewpoint Depression Visibility Wind Speed Wind Dir Waves Ship Positions

Ocean King

Last reported at 2017-Aug-21 15:19 UTC. Time now 2017-Aug-21 23:42 UTC.
Position N 49°20' W 126°59'.

Length 29 m; draft 4 m.

Type: Fishing. MMSI: 316003514.

Date/timePositionNaut miles runAvg speedWind from/ knotsBaromVisibWave heightAir tempDewpointWater temp
2017-Aug-21 15:19N 49°20' W 126°59'3 7.8
2017-Aug-21 14:59N 49°19' W 126°55'3 7.4
2017-Aug-21 14:30N 49°18' W 126°51'4 7.5
2017-Aug-21 14:00N 49°16' W 126°45'4 8.0
2017-Aug-21 13:30N 49°14' W 126°40'4 8.2
2017-Aug-21 13:00N 49°13' W 126°34'4 8.3
2017-Aug-21 12:30N 49°11' W 126°28'4 8.5
2017-Aug-21 12:00N 49°09' W 126°22'4 8.5
2017-Aug-21 11:30N 49°08' W 126°16'4 8.4
2017-Aug-21 11:00N 49°06' W 126°11'4 8.2
2017-Aug-21 10:30N 49°04' W 126°05'4 8.0
2017-Aug-21 10:00N 49°02' W 125°60'4 7.4
2017-Aug-21 09:30N 49°01' W 125°55'4 7.4
2017-Aug-21 09:00N 48°59' W 125°50'4 7.8
2017-Aug-21 08:30N 48°58' W 125°44'4 7.3
2017-Aug-21 08:00N 48°56' W 125°39'4 7.2
2017-Aug-21 07:30N 48°55' W 125°34'1 2.9
2017-Aug-21 07:00N 48°56' W 125°32'0 0.0
2017-Aug-21 06:30N 48°56' W 125°32'0 0.0
2017-Aug-21 06:00N 48°56' W 125°32'0 0.0
2017-Aug-21 05:30N 48°56' W 125°32'0 0.0
2017-Aug-21 05:00N 48°56' W 125°32'0 0.0
2017-Aug-21 04:30N 48°56' W 125°32'0 0.0
2017-Aug-21 04:01N 48°56' W 125°32'0 0.0
2017-Aug-21 03:30N 48°56' W 125°32'0 0.0
2017-Aug-21 03:00N 48°56' W 125°32'0 0.3
2017-Aug-21 02:30N 48°56' W 125°32'0 0.0
2017-Aug-21 02:00N 48°56' W 125°32'0 0.0
2017-Aug-21 01:30N 48°56' W 125°32'0 0.0
2017-Aug-21 01:00N 48°56' W 125°32'0 0.0
2017-Aug-21 00:30N 48°56' W 125°32'0 0.0
2017-Aug-21 00:00N 48°56' W 125°32'0 0.0
2017-Aug-20 23:31N 48°56' W 125°32'0 0.0
2017-Aug-20 23:00N 48°56' W 125°32'0 0.0
2017-Aug-20 22:30N 48°56' W 125°32'0 0.0
2017-Aug-20 22:00N 48°56' W 125°32'0 0.0
2017-Aug-20 21:30N 48°56' W 125°32'0 0.0
2017-Aug-20 21:00N 48°56' W 125°32'0 0.0
2017-Aug-20 20:30N 48°56' W 125°32'0 0.0
2017-Aug-20 20:00N 48°56' W 125°32'0 0.0
2017-Aug-20 19:30N 48°56' W 125°32'0 0.0
2017-Aug-20 19:00N 48°56' W 125°32'0 0.0
2017-Aug-20 18:30N 48°56' W 125°32'0 0.0
2017-Aug-20 18:00N 48°56' W 125°32'0 0.0
2017-Aug-20 17:30N 48°56' W 125°32'0 0.0
2017-Aug-20 17:00N 48°56' W 125°32'0 0.0
2017-Aug-20 16:30N 48°56' W 125°32'0 0.0
2017-Aug-20 16:01N 48°56' W 125°32'0 0.0
2017-Aug-20 15:30N 48°56' W 125°32'0 0.0
2017-Aug-20 15:00N 48°56' W 125°32'0 0.0
2017-Aug-20 14:30N 48°56' W 125°32'0 0.0
2017-Aug-20 14:00N 48°56' W 125°32'0 0.0
2017-Aug-20 13:30N 48°56' W 125°32'0 0.0
2017-Aug-20 13:00N 48°56' W 125°32'0 0.0
2017-Aug-20 12:30N 48°56' W 125°32'0 0.0
2017-Aug-20 12:00N 48°56' W 125°32'0 0.0
2017-Aug-20 11:30N 48°56' W 125°32'0 0.0
2017-Aug-20 11:00N 48°56' W 125°32'0 0.0
2017-Aug-20 10:30N 48°56' W 125°32'0 0.0
2017-Aug-20 10:00N 48°56' W 125°32'0 0.0
2017-Aug-20 09:30N 48°56' W 125°32'0 0.0
2017-Aug-20 09:00N 48°56' W 125°32'0 0.0
2017-Aug-20 08:30N 48°56' W 125°32'0 0.0
2017-Aug-20 08:00N 48°56' W 125°32'0 0.0
2017-Aug-20 07:31N 48°56' W 125°32'0 0.0
2017-Aug-20 07:00N 48°56' W 125°32'0 0.0
2017-Aug-20 06:30N 48°56' W 125°32'0 0.0
2017-Aug-20 06:00N 48°56' W 125°32'0 0.0
2017-Aug-20 05:30N 48°56' W 125°32'0 0.0
2017-Aug-20 05:00N 48°56' W 125°32'0 0.0
2017-Aug-20 04:30N 48°56' W 125°32'0 0.0
2017-Aug-20 04:00N 48°56' W 125°32'0 0.0
2017-Aug-20 03:30N 48°56' W 125°32'0 0.0
2017-Aug-20 03:00N 48°56' W 125°32'0 0.0
2017-Aug-20 02:30N 48°56' W 125°32'0 0.0
2017-Aug-20 02:00N 48°56' W 125°32'0 0.0
2017-Aug-20 01:30N 48°56' W 125°32'0 0.0
2017-Aug-20 01:00N 48°56' W 125°32'0 0.0
2017-Aug-20 00:30N 48°56' W 125°32'0 0.0
2017-Aug-20 00:00N 48°56' W 125°32'0 0.0
2017-Aug-19 23:30N 48°56' W 125°32'0 0.0
2017-Aug-19 23:00N 48°56' W 125°32'0 0.0
2017-Aug-19 22:30N 48°56' W 125°32'0 0.0
2017-Aug-19 22:00N 48°56' W 125°32'0 0.0
2017-Aug-19 21:30N 48°56' W 125°32'0 0.0
2017-Aug-19 21:00N 48°56' W 125°32'0 0.0
2017-Aug-19 20:30N 48°56' W 125°32'0 0.0
2017-Aug-19 20:00N 48°56' W 125°32'0 0.0
2017-Aug-19 19:30N 48°56' W 125°32'0 0.0
2017-Aug-19 19:00N 48°56' W 125°32'0 0.0
2017-Aug-19 18:30N 48°56' W 125°32'0 0.0
2017-Aug-19 18:00N 48°56' W 125°32'0 0.0
2017-Aug-19 17:30N 48°56' W 125°32'0 0.0
2017-Aug-19 17:00N 48°56' W 125°32'0 0.0
2017-Aug-19 16:30N 48°56' W 125°32'0 0.0
2017-Aug-19 16:00N 48°56' W 125°32'0 0.0
2017-Aug-19 15:30N 48°56' W 125°32'0 0.0
2017-Aug-19 15:00N 48°56' W 125°32'0 0.0
2017-Aug-19 14:00N 48°56' W 125°32'0 0.0
2017-Aug-19 13:30N 48°56' W 125°32'0 0.0
2017-Aug-19 13:00N 48°56' W 125°32'0 0.0
2017-Aug-19 12:30N 48°56' W 125°32'0 0.0
2017-Aug-19 12:00N 48°56' W 125°32'0 0.0
2017-Aug-19 11:30N 48°56' W 125°32'0 0.0
2017-Aug-19 11:00N 48°56' W 125°32'0 0.0
2017-Aug-19 10:30N 48°56' W 125°32'0 0.0
2017-Aug-19 10:00N 48°56' W 125°32'0 0.0
2017-Aug-19 09:31N 48°56' W 125°32'0 0.0
2017-Aug-19 09:00N 48°56' W 125°32'0 0.0
2017-Aug-19 08:30N 48°56' W 125°32'0 0.0
2017-Aug-19 08:00N 48°56' W 125°32'0 0.0
2017-Aug-19 07:30N 48°56' W 125°32'0 0.0
2017-Aug-19 07:00N 48°56' W 125°32'0 0.0
2017-Aug-19 06:30N 48°56' W 125°32'0 0.0
2017-Aug-19 06:00N 48°56' W 125°32'0 0.0
2017-Aug-19 05:30N 48°56' W 125°32'0 0.0
2017-Aug-19 05:01N 48°56' W 125°32'0 0.0
2017-Aug-19 04:30N 48°56' W 125°32'0 0.0
2017-Aug-19 04:00N 48°56' W 125°32'0 0.0
2017-Aug-19 03:30N 48°56' W 125°32'0 0.0
2017-Aug-19 03:00N 48°56' W 125°32'0 0.0
2017-Aug-19 02:30N 48°56' W 125°32'0 0.0
2017-Aug-19 02:00N 48°56' W 125°32'0 0.0
2017-Aug-19 01:30N 48°56' W 125°32'0 0.0
2017-Aug-19 01:00N 48°56' W 125°32'0 0.0
2017-Aug-19 00:30N 48°56' W 125°32'0 0.0
2017-Aug-19 00:00N 48°56' W 125°32'0 0.0
2017-Aug-18 23:30N 48°56' W 125°32'0 0.0
2017-Aug-18 23:00N 48°56' W 125°32'0 0.5
2017-Aug-18 22:30N 48°56' W 125°32'0 0.0
2017-Aug-18 22:00N 48°56' W 125°32'0 0.0
2017-Aug-18 21:30N 48°56' W 125°32'0 0.0
2017-Aug-18 21:00N 48°56' W 125°32'0 0.0
2017-Aug-18 20:30N 48°56' W 125°32'0 0.0
2017-Aug-18 20:00N 48°56' W 125°32'0 0.2
2017-Aug-18 19:30N 48°56' W 125°32'0 0.0
2017-Aug-18 19:00N 48°56' W 125°32'0 0.0
2017-Aug-18 18:31N 48°56' W 125°32'0 0.0
2017-Aug-18 18:00N 48°56' W 125°32'0 0.0
2017-Aug-18 17:30N 48°56' W 125°32'0 0.0
2017-Aug-18 17:00N 48°56' W 125°32'0 0.0
2017-Aug-18 16:30N 48°56' W 125°32'0 0.0
2017-Aug-18 16:00N 48°56' W 125°32'0 0.0
2017-Aug-18 15:30N 48°56' W 125°32'1 2.8
2017-Aug-18 15:00N 48°55' W 125°33'4 8.4
2017-Aug-18 14:31N 48°57' W 125°38'8 8.2
2017-Aug-18 13:30N 49°01' W 125°50'4 8.5
2017-Aug-18 13:00N 49°02' W 125°55'4 7.2
2017-Aug-18 12:30N 49°04' W 126°00'3 6.9
2017-Aug-18 12:00N 49°06' W 126°05'3 6.9
2017-Aug-18 11:30N 49°07' W 126°10'4 6.9
2017-Aug-18 10:59N 49°09' W 126°14'4 6.9
2017-Aug-18 10:28N 49°11' W 126°19'3 6.9
2017-Aug-18 10:00N 49°12' W 126°23'4 7.0
2017-Aug-18 09:30N 49°14' W 126°28'4 7.0
2017-Aug-18 09:00N 49°16' W 126°33'4 7.2
2017-Aug-18 08:30N 49°17' W 126°38'4 7.3
2017-Aug-18 08:00N 49°19' W 126°43'4 7.2
2017-Aug-18 07:30N 49°21' W 126°47'4 7.7
2017-Aug-18 07:00N 49°22' W 126°53'4 7.9
2017-Aug-18 06:27N 49°25' W 126°58'13 1.0
2017-Aug-17 18:10N 49°30' W 127°16'14 2.3
2017-Aug-17 11:48N 49°19' W 127°02'3 7.7
2017-Aug-17 11:28N 49°18' W 126°58'3 7.4
2017-Aug-17 11:00N 49°16' W 126°54'4 7.7
2017-Aug-17 10:30N 49°15' W 126°48'4 7.7
2017-Aug-17 10:00N 49°13' W 126°43'4 7.9
2017-Aug-17 09:30N 49°12' W 126°37'4 8.0
2017-Aug-17 09:00N 49°10' W 126°32'4 8.2
2017-Aug-17 08:30N 49°09' W 126°25'4 8.3
2017-Aug-17 08:00N 49°08' W 126°20'4 8.3
2017-Aug-17 07:30N 49°06' W 126°14'4 8.1
2017-Aug-17 07:00N 49°04' W 126°08'4 7.9
2017-Aug-17 06:30N 49°03' W 126°03'4 7.5
2017-Aug-17 06:00N 49°02' W 125°57'4 7.5
2017-Aug-17 05:30N 49°00' W 125°52'4 7.6
2017-Aug-17 05:00N 48°59' W 125°46'4 7.7
2017-Aug-17 04:30N 48°58' W 125°41'4 7.9
2017-Aug-17 04:00N 48°56' W 125°35'2 5.0
2017-Aug-17 03:30N 48°56' W 125°32'1 1.2
2017-Aug-17 03:00N 48°56' W 125°32'0 0.0
2017-Aug-17 02:30N 48°56' W 125°32'0 0.0
2017-Aug-17 02:00N 48°56' W 125°32'0 0.0
2017-Aug-17 01:30N 48°56' W 125°32'0 0.0
2017-Aug-17 01:00N 48°56' W 125°32'0 0.0
2017-Aug-17 00:30N 48°56' W 125°32'0 0.0
2017-Aug-17 00:00N 48°56' W 125°32'0 0.0
2017-Aug-16 23:30N 48°56' W 125°32'0 0.0
2017-Aug-16 23:00N 48°56' W 125°32'0 0.0
2017-Aug-16 22:30N 48°56' W 125°32'0 0.0
2017-Aug-16 22:00N 48°56' W 125°32'0 0.0
2017-Aug-16 21:30N 48°56' W 125°32'0 0.0
2017-Aug-16 21:00N 48°56' W 125°32'0 0.0
2017-Aug-16 20:30N 48°56' W 125°32'0 0.0
2017-Aug-16 20:00N 48°56' W 125°32'0 0.0
2017-Aug-16 19:30N 48°56' W 125°32'0 0.0
2017-Aug-16 19:00N 48°56' W 125°32'0 0.0
2017-Aug-16 18:30N 48°56' W 125°32'0 0.0
2017-Aug-16 18:00N 48°56' W 125°32'0 0.0
2017-Aug-16 17:30N 48°56' W 125°32'0 0.0
2017-Aug-16 17:00N 48°56' W 125°32'0 0.0
2017-Aug-16 16:30N 48°56' W 125°32'0 0.0
2017-Aug-16 16:00N 48°56' W 125°32'0 0.0
2017-Aug-16 15:30N 48°56' W 125°32'0 0.0
2017-Aug-16 15:00N 48°56' W 125°32'2 3.2
2017-Aug-16 14:31N 48°55' W 125°32'3 6.7
2017-Aug-16 14:00N 48°56' W 125°36'3 6.2
2017-Aug-16 13:30N 48°58' W 125°40'3 6.1
2017-Aug-16 13:01N 48°59' W 125°45'3 5.8
2017-Aug-16 12:30N 48°60' W 125°49'3 5.5
2017-Aug-16 12:00N 49°01' W 125°52'3 5.7
2017-Aug-16 11:30N 49°03' W 125°56'3 5.6
2017-Aug-16 11:00N 49°04' W 126°00'3 5.8
2017-Aug-16 10:31N 49°05' W 126°04'3 5.8
2017-Aug-16 10:00N 49°07' W 126°08'3 5.8
2017-Aug-16 09:30N 49°08' W 126°12'3 5.6
2017-Aug-16 09:00N 49°09' W 126°16'3 5.8
2017-Aug-16 08:29N 49°11' W 126°20'3 6.1
2017-Aug-16 08:01N 49°12' W 126°24'3 6.1
2017-Aug-16 07:29N 49°14' W 126°28'5 6.1
2017-Aug-16 06:37N 49°16' W 126°35'27 3.5
2017-Aug-15 22:49N 49°24' W 127°16'1 2.6
2017-Aug-15 22:27N 49°23' W 127°15'1 2.6
2017-Aug-15 21:58N 49°22' W 127°14'0 0.4
2017-Aug-15 21:11N 49°21' W 127°14'2 6.8
2017-Aug-15 20:53N 49°23' W 127°15'2 3.6
2017-Aug-15 20:21N 49°22' W 127°14'26 2.4
2017-Aug-15 09:26N 49°17' W 126°34'4 8.4
2017-Aug-15 09:00N 49°15' W 126°29'4 8.3
2017-Aug-15 08:30N 49°13' W 126°24'4 8.5
2017-Aug-15 08:00N 49°11' W 126°18'4 8.4
2017-Aug-15 07:30N 49°09' W 126°12'4 8.3
2017-Aug-15 07:00N 49°07' W 126°07'4 8.1
2017-Aug-15 06:30N 49°05' W 126°01'4 7.8
2017-Aug-15 06:00N 49°03' W 125°56'4 7.7
2017-Aug-15 05:30N 49°01' W 125°51'4 7.6
2017-Aug-15 05:00N 48°59' W 125°46'4 7.8
2017-Aug-15 04:30N 48°57' W 125°41'4 8.1
2017-Aug-15 04:01N 48°56' W 125°35'2 4.4
2017-Aug-15 03:30N 48°56' W 125°32'0 0.5
2017-Aug-15 03:00N 48°56' W 125°32'0 0.0
2017-Aug-15 02:30N 48°56' W 125°32'0 0.0
2017-Aug-15 02:00N 48°56' W 125°32'0 0.0
2017-Aug-15 01:30N 48°56' W 125°32'0 0.0
2017-Aug-15 01:00N 48°56' W 125°32'0 0.0
2017-Aug-15 00:30N 48°56' W 125°32'0 0.0
2017-Aug-15 00:00N 48°56' W 125°32'0 0.0
2017-Aug-14 23:30N 48°56' W 125°32'0 0.0
2017-Aug-14 23:00N 48°56' W 125°32'0 0.0
2017-Aug-14 22:30N 48°56' W 125°32'0 0.0
2017-Aug-14 22:00N 48°56' W 125°32'0 0.0
2017-Aug-14 21:30N 48°56' W 125°32'0 0.0
2017-Aug-14 21:00N 48°56' W 125°32'0 0.0
2017-Aug-14 20:30N 48°56' W 125°32'0 0.0
2017-Aug-14 20:00N 48°56' W 125°32'0 0.0
2017-Aug-14 19:30N 48°56' W 125°32'0 0.0
2017-Aug-14 19:00N 48°56' W 125°32'0 0.0
2017-Aug-14 18:30N 48°56' W 125°32'0 0.0
2017-Aug-14 18:00N 48°56' W 125°32'0 0.9
2017-Aug-14 17:30N 48°56' W 125°32'2 3.6
2017-Aug-14 17:00N 48°55' W 125°34'3 6.3
2017-Aug-14 16:30N 48°56' W 125°38'3 6.5
2017-Aug-14 16:00N 48°58' W 125°42'3 6.3
2017-Aug-14 15:30N 48°59' W 125°47'3 6.1
2017-Aug-14 15:00N 48°60' W 125°51'3 6.0
2017-Aug-14 14:30N 49°01' W 125°55'3 5.9
2017-Aug-14 14:00N 49°03' W 125°59'3 5.7
2017-Aug-14 13:30N 49°04' W 126°03'3 5.6
2017-Aug-14 13:00N 49°06' W 126°07'3 5.6
2017-Aug-14 12:30N 49°07' W 126°11'3 5.6
2017-Aug-14 12:01N 49°08' W 126°14'3 5.4
2017-Aug-14 11:30N 49°09' W 126°18'3 5.5
2017-Aug-14 11:00N 49°10' W 126°22'4 5.6
2017-Aug-14 10:23N 49°11' W 126°27'3 5.8
2017-Aug-14 09:54N 49°12' W 126°31'15 0.4
2017-Aug-13 00:30N 48°57' W 126°33'4 6.6
2017-Aug-12 23:52N 48°53' W 126°33'3 6.3
2017-Aug-12 23:26N 48°50' W 126°32'3 6.6
2017-Aug-12 22:57N 48°49' W 126°27'3 6.3
2017-Aug-12 22:27N 48°48' W 126°23'3 6.5
2017-Aug-12 22:00N 48°46' W 126°19'3 6.4
2017-Aug-12 21:30N 48°44' W 126°15'3 5.6
2017-Aug-12 21:00N 48°42' W 126°16'3 5.2
2017-Aug-12 20:30N 48°40' W 126°14'1 1.5
2017-Aug-12 20:00N 48°40' W 126°15'3 5.8
2017-Aug-12 19:30N 48°37' W 126°12'4 8.2
2017-Aug-12 19:00N 48°34' W 126°10'2 4.6
2017-Aug-12 18:30N 48°36' W 126°10'5 9.3
2017-Aug-12 18:00N 48°40' W 126°15'4 9.0
2017-Aug-12 17:30N 48°44' W 126°14'4 7.9
2017-Aug-12 17:00N 48°46' W 126°19'1 2.5
2017-Aug-12 16:30N 48°46' W 126°18'3 6.5
2017-Aug-12 16:00N 48°43' W 126°15'3 6.2
2017-Aug-12 15:30N 48°40' W 126°15'4 8.5
2017-Aug-12 15:00N 48°37' W 126°11'3 5.5
2017-Aug-12 14:30N 48°34' W 126°10'4 6.9
2017-Aug-12 14:00N 48°37' W 126°12'4 7.9
2017-Aug-12 13:30N 48°40' W 126°15'4 7.4
2017-Aug-12 13:00N 48°43' W 126°11'4 7.6
2017-Aug-12 12:30N 48°44' W 126°06'4 7.6
2017-Aug-12 12:00N 48°46' W 126°00'4 7.6
2017-Aug-12 11:30N 48°47' W 125°55'4 7.6
2017-Aug-12 11:00N 48°49' W 125°50'4 7.6
2017-Aug-12 10:30N 48°50' W 125°44'4 7.4
2017-Aug-12 10:00N 48°52' W 125°39'4 7.2
2017-Aug-12 09:30N 48°53' W 125°34'3 6.1
2017-Aug-12 09:00N 48°55' W 125°31'1 2.4
2017-Aug-12 08:30N 48°56' W 125°32'0 0.0
2017-Aug-12 08:00N 48°56' W 125°32'0 0.0
2017-Aug-12 07:31N 48°56' W 125°32'0 0.0
2017-Aug-12 07:00N 48°56' W 125°32'0 0.0
2017-Aug-12 06:30N 48°56' W 125°32'0 0.0
2017-Aug-12 06:00N 48°56' W 125°32'0 0.0
2017-Aug-12 05:30N 48°56' W 125°32'0 0.0
2017-Aug-12 05:00N 48°56' W 125°32'0 0.0
2017-Aug-12 04:30N 48°56' W 125°32'0 0.0
2017-Aug-12 04:00N 48°56' W 125°32'0 0.0
2017-Aug-12 03:30N 48°56' W 125°32'0 0.0
2017-Aug-12 03:00N 48°56' W 125°32'0 0.0
2017-Aug-12 02:30N 48°56' W 125°32'0 0.0
2017-Aug-12 02:00N 48°56' W 125°32'0 0.0
2017-Aug-12 01:30N 48°56' W 125°32'0 0.0
2017-Aug-12 01:00N 48°56' W 125°32'0 0.0
2017-Aug-12 00:30N 48°56' W 125°32'0 0.0
2017-Aug-12 00:00N 48°56' W 125°32'0 0.0
2017-Aug-11 23:30N 48°56' W 125°32'0 0.0
2017-Aug-11 23:00N 48°56' W 125°32'0 0.0
2017-Aug-11 22:30N 48°56' W 125°32'0 0.0
2017-Aug-11 22:00N 48°56' W 125°32'0 0.0
2017-Aug-11 21:30N 48°56' W 125°32'0 0.0
2017-Aug-11 21:01N 48°56' W 125°32'0 0.0
2017-Aug-11 20:30N 48°56' W 125°32'0 0.0
2017-Aug-11 20:00N 48°56' W 125°32'0 0.0
2017-Aug-11 19:30N 48°56' W 125°32'0 0.0
2017-Aug-11 19:00N 48°56' W 125°32'0 0.0
2017-Aug-11 18:30N 48°56' W 125°32'0 0.0
2017-Aug-11 18:00N 48°56' W 125°32'0 0.0
2017-Aug-11 17:30N 48°56' W 125°32'0 0.1
2017-Aug-11 17:00N 48°56' W 125°32'0 0.1
2017-Aug-11 16:30N 48°56' W 125°32'0 0.0
2017-Aug-11 16:00N 48°56' W 125°32'0 0.0
2017-Aug-11 15:30N 48°56' W 125°32'  

Dump ship's entire track history